ΕΜΥ, Εθνική Μετεωρολογική Υπηρεσία - Δελτία Καιρού, Προγνώσεις

ΑΕΡΟΝΑΥΤΙΛΙΑ

GREEK AIRPORTS CODES

LGST 181300Z 31015G25KT 9999 FEW018 BKN025 13/06 Q1017 RMK SCT070=

EUROPEAN AIRPORTS CODES

LFPO 181330Z VRB02KT 9999 SCT024 10/04 Q1027 NOSIG=